createdAt,value
2018-03-07T00:00:31.645Z,3.73
2018-03-07T00:02:59.911Z,3.93
2018-03-07T00:05:28.184Z,3.70
2018-03-07T00:07:56.641Z,3.58
2018-03-07T00:10:24.921Z,3.53
2018-03-07T00:12:53.268Z,3.48
2018-03-07T00:15:22.620Z,3.40
2018-03-07T00:17:50.953Z,3.38
2018-03-07T00:20:19.293Z,3.39
2018-03-07T00:22:47.582Z,3.42
2018-03-07T00:25:15.877Z,3.23
2018-03-07T00:27:44.230Z,3.14
2018-03-07T00:30:12.502Z,3.08
2018-03-07T00:32:40.789Z,3.12
2018-03-07T00:35:09.225Z,3.14
2018-03-07T00:37:37.494Z,2.99
2018-03-07T00:40:05.786Z,2.83
2018-03-07T00:42:34.066Z,2.75
2018-03-07T00:45:02.477Z,2.73
2018-03-07T00:47:30.851Z,2.61
2018-03-07T00:50:00.163Z,2.61
2018-03-07T00:52:28.533Z,2.57
2018-03-07T00:54:56.911Z,2.71
2018-03-07T00:57:25.306Z,2.84
2018-03-07T00:59:53.675Z,2.66
2018-03-07T01:02:22.042Z,2.53
2018-03-07T01:04:50.436Z,2.41
2018-03-07T01:07:18.793Z,2.41
2018-03-07T01:09:48.508Z,2.22
2018-03-07T01:12:16.791Z,2.22
2018-03-07T01:14:45.228Z,2.14
2018-03-07T01:17:14.481Z,2.19
2018-03-07T01:19:42.840Z,2.24
2018-03-07T01:22:11.244Z,2.09
2018-03-07T01:24:39.593Z,2.29
2018-03-07T01:27:08.019Z,2.23
2018-03-07T01:29:36.773Z,2.10
2018-03-07T01:32:05.078Z,1.93
2018-03-07T01:34:33.481Z,2.17
2018-03-07T01:37:01.861Z,2.10
2018-03-07T01:39:30.223Z,2.03
2018-03-07T01:41:59.546Z,2.22
2018-03-07T01:44:31.631Z,2.07
2018-03-07T01:47:01.380Z,1.93
2018-03-07T01:49:29.903Z,2.13
2018-03-07T01:52:02.292Z,1.94
2018-03-07T01:54:31.650Z,1.70
2018-03-07T01:57:00.000Z,1.80
2018-03-07T01:59:28.760Z,1.70
2018-03-07T02:01:57.137Z,1.65
2018-03-07T02:04:25.515Z,1.63
2018-03-07T02:06:55.085Z,1.47
2018-03-07T02:09:23.400Z,1.42
2018-03-07T02:11:53.132Z,1.44
2018-03-07T02:14:21.492Z,1.39
2018-03-07T02:16:50.746Z,1.58
2018-03-07T02:19:21.228Z,1.44
2018-03-07T02:21:50.563Z,1.24
2018-03-07T02:24:23.198Z,1.24
2018-03-07T02:26:51.695Z,1.39
2018-03-07T02:29:21.796Z,1.35
2018-03-07T02:31:50.211Z,1.25
2018-03-07T02:34:18.607Z,1.48
2018-03-07T02:36:46.941Z,1.57
2018-03-07T02:39:15.327Z,1.32
2018-03-07T02:41:43.684Z,1.23
2018-03-07T02:44:12.529Z,1.31
2018-03-07T02:46:41.096Z,1.25
2018-03-07T02:49:11.346Z,1.18
2018-03-07T02:51:39.683Z,1.13
2018-03-07T02:54:08.065Z,1.30
2018-03-07T02:56:38.588Z,1.24
2018-03-07T02:59:07.202Z,1.18
2018-03-07T03:01:35.619Z,1.18
2018-03-07T03:04:04.084Z,1.14
2018-03-07T03:06:34.571Z,1.00
2018-03-07T03:09:04.779Z,1.12
2018-03-07T03:11:35.432Z,1.18
2018-03-07T03:14:03.720Z,1.05
2018-03-07T03:16:32.959Z,1.11
2018-03-07T03:19:01.361Z,1.00
2018-03-07T03:21:29.778Z,1.13
2018-03-07T03:23:59.428Z,0.93
2018-03-07T03:26:27.715Z,0.95
2018-03-07T03:28:56.083Z,0.99
2018-03-07T03:31:24.468Z,1.01
2018-03-07T03:33:52.828Z,1.00
2018-03-07T03:36:24.911Z,0.90
2018-03-07T03:38:53.299Z,1.03
2018-03-07T03:41:21.685Z,1.16
2018-03-07T03:43:50.078Z,1.07
2018-03-07T03:46:18.444Z,1.02
2018-03-07T03:48:46.862Z,1.14
2018-03-07T03:51:16.138Z,1.04
2018-03-07T03:53:44.545Z,1.14
2018-03-07T03:56:13.813Z,1.21
2018-03-07T03:58:42.236Z,1.24
2018-03-07T04:01:10.608Z,1.36
2018-03-07T04:03:39.046Z,1.47
2018-03-07T04:06:07.348Z,1.45
2018-03-07T04:08:37.588Z,1.53
2018-03-07T04:11:09.994Z,1.45
2018-03-07T04:13:38.319Z,1.51
2018-03-07T04:16:06.677Z,1.57
2018-03-07T04:18:36.056Z,1.66
2018-03-07T04:21:04.440Z,1.49
2018-03-07T04:23:32.840Z,1.53
2018-03-07T04:26:01.545Z,1.53
2018-03-07T04:28:29.980Z,1.62
2018-03-07T04:30:58.335Z,1.80
2018-03-07T04:33:31.215Z,1.96
2018-03-07T04:35:59.740Z,2.05
2018-03-07T04:38:28.350Z,2.02
2018-03-07T04:40:56.606Z,2.04
2018-03-07T04:43:25.002Z,2.02
2018-03-07T04:45:53.334Z,2.02
2018-03-07T04:48:21.808Z,2.03
2018-03-07T04:50:50.160Z,2.18
2018-03-07T04:53:19.453Z,2.31
2018-03-07T04:55:48.763Z,2.41
2018-03-07T04:58:17.142Z,2.46
2018-03-07T05:00:45.499Z,2.47
2018-03-07T05:03:13.897Z,2.50
2018-03-07T05:05:42.253Z,2.54
2018-03-07T05:08:10.642Z,2.44
2018-03-07T05:10:39.041Z,2.50
2018-03-07T05:13:07.746Z,2.39
2018-03-07T05:15:36.079Z,2.34
2018-03-07T05:18:04.482Z,2.34
2018-03-07T05:20:32.772Z,2.45
2018-03-07T05:23:01.042Z,2.58
2018-03-07T05:25:29.319Z,2.54
2018-03-07T05:27:57.626Z,2.52
2018-03-07T05:30:25.900Z,2.65
2018-03-07T05:32:54.187Z,2.66
2018-03-07T05:35:22.476Z,2.57
2018-03-07T05:37:51.516Z,2.73
2018-03-07T05:40:19.834Z,2.73
2018-03-07T05:42:48.104Z,2.63
2018-03-07T05:45:16.364Z,2.66
2018-03-07T05:47:44.667Z,2.70
2018-03-07T05:50:12.971Z,2.81
2018-03-07T05:52:42.028Z,2.84
2018-03-07T05:55:10.297Z,2.65
2018-03-07T05:57:38.575Z,2.59
2018-03-07T06:00:06.854Z,2.62
2018-03-07T06:02:35.101Z,2.51
2018-03-07T06:05:03.393Z,2.57
2018-03-07T06:07:31.669Z,2.53
2018-03-07T06:09:59.950Z,2.51
2018-03-07T06:12:28.252Z,2.44
2018-03-07T06:14:56.509Z,2.39
2018-03-07T06:17:24.791Z,2.48
2018-03-07T06:19:53.055Z,2.49
2018-03-07T06:22:21.340Z,2.45
2018-03-07T06:24:50.532Z,2.47
2018-03-07T06:27:18.803Z,2.43
2018-03-07T06:29:47.072Z,2.47
2018-03-07T06:32:15.369Z,2.39
2018-03-07T06:34:43.636Z,2.51
2018-03-07T06:37:11.907Z,2.44
2018-03-07T06:39:40.195Z,2.47
2018-03-07T06:42:08.472Z,2.45
2018-03-07T06:44:36.754Z,2.51
2018-03-07T06:47:05.027Z,2.60
2018-03-07T06:49:33.309Z,2.64
2018-03-07T06:52:01.741Z,2.63
2018-03-07T06:54:30.799Z,2.61
2018-03-07T06:56:59.077Z,2.64
2018-03-07T06:59:27.358Z,2.59
2018-03-07T07:01:55.640Z,2.52
2018-03-07T07:04:23.892Z,2.61
2018-03-07T07:06:52.170Z,2.71
2018-03-07T07:09:20.435Z,2.66
2018-03-07T07:11:48.729Z,2.63
2018-03-07T07:14:16.997Z,2.66
2018-03-07T07:16:45.268Z,2.64
2018-03-07T07:19:13.814Z,2.70
2018-03-07T07:21:42.091Z,2.74
2018-03-07T07:24:10.341Z,2.75
2018-03-07T07:26:38.647Z,2.78
2018-03-07T07:29:06.929Z,2.81
2018-03-07T07:31:35.206Z,2.94
2018-03-07T07:34:04.242Z,2.99
2018-03-07T07:36:32.505Z,2.98
2018-03-07T07:39:00.803Z,3.05
2018-03-07T07:41:29.096Z,3.01
2018-03-07T07:43:57.381Z,3.05
2018-03-07T07:46:25.690Z,3.23
2018-03-07T07:48:54.729Z,3.23
2018-03-07T07:51:22.993Z,3.38
2018-03-07T07:53:51.291Z,3.36
2018-03-07T07:56:19.555Z,3.43
2018-03-07T07:58:48.258Z,3.43
2018-03-07T08:01:16.955Z,3.45
2018-03-07T08:03:45.231Z,3.51
2018-03-07T08:06:13.482Z,3.53
2018-03-07T08:08:41.797Z,3.71
2018-03-07T08:11:10.059Z,3.62
2018-03-07T08:13:38.345Z,3.75
2018-03-07T08:16:06.603Z,3.76
2018-03-07T08:18:34.892Z,3.80
2018-03-07T08:21:03.228Z,3.91
2018-03-07T08:23:31.492Z,3.84
2018-03-07T08:26:00.532Z,3.90
2018-03-07T08:28:28.830Z,3.91
2018-03-07T08:30:57.614Z,3.95
2018-03-07T08:33:25.884Z,4.06
2018-03-07T08:35:54.148Z,4.19
2018-03-07T08:38:22.438Z,4.26
2018-03-07T08:40:50.711Z,4.33
2018-03-07T08:43:19.005Z,4.45
2018-03-07T08:45:47.270Z,4.56
2018-03-07T08:48:15.536Z,4.65
2018-03-07T08:50:43.830Z,4.71
2018-03-07T08:53:12.114Z,4.78
2018-03-07T08:55:40.394Z,4.78
2018-03-07T08:58:09.161Z,4.78
2018-03-07T09:00:37.439Z,4.83
2018-03-07T09:03:05.724Z,4.86
2018-03-07T09:05:34.295Z,4.88
2018-03-07T09:08:02.571Z,4.90
2018-03-07T09:10:30.847Z,4.96
2018-03-07T09:12:59.450Z,5.00
2018-03-07T09:15:27.735Z,5.07
2018-03-07T09:17:56.005Z,5.13
2018-03-07T09:20:24.605Z,5.20
2018-03-07T09:22:52.879Z,5.30
2018-03-07T09:25:21.148Z,5.34
2018-03-07T09:27:49.441Z,5.35
2018-03-07T09:30:17.711Z,5.47
2018-03-07T09:32:45.988Z,5.51
2018-03-07T09:35:14.577Z,5.55
2018-03-07T09:37:42.859Z,5.57
2018-03-07T09:40:11.133Z,5.57
2018-03-07T09:42:39.476Z,5.67
2018-03-07T09:45:07.828Z,5.72
2018-03-07T09:47:36.076Z,5.73
2018-03-07T09:50:04.361Z,5.80
2018-03-07T09:52:32.639Z,5.82
2018-03-07T09:55:00.911Z,5.87
2018-03-07T09:57:29.194Z,5.91
2018-03-07T09:59:57.473Z,5.96
2018-03-07T10:02:25.749Z,5.98
2018-03-07T10:04:54.023Z,6.01
2018-03-07T10:07:22.295Z,6.11
2018-03-07T10:09:50.577Z,6.17
2018-03-07T10:12:18.847Z,6.16
2018-03-07T10:14:47.113Z,6.14
2018-03-07T10:17:15.393Z,6.16
2018-03-07T10:19:43.673Z,6.15
2018-03-07T10:22:11.942Z,6.18
2018-03-07T10:24:40.214Z,6.21
2018-03-07T10:27:08.499Z,6.23
2018-03-07T10:29:36.797Z,6.25
2018-03-07T10:32:05.080Z,6.32
2018-03-07T10:34:33.333Z,6.30
2018-03-07T10:37:01.600Z,6.37
2018-03-07T10:39:29.882Z,6.41
2018-03-07T10:41:58.185Z,6.45
2018-03-07T10:44:26.436Z,6.48
2018-03-07T10:46:54.698Z,6.53
2018-03-07T10:49:22.998Z,6.56
2018-03-07T10:51:51.266Z,6.52
2018-03-07T10:54:19.954Z,6.55
2018-03-07T10:56:48.208Z,6.54
2018-03-07T10:59:16.464Z,6.55
2018-03-07T11:01:44.757Z,6.58
2018-03-07T11:04:13.781Z,6.56
2018-03-07T11:06:42.912Z,6.57
2018-03-07T11:09:11.197Z,6.59
2018-03-07T11:11:39.448Z,6.57
2018-03-07T11:14:07.733Z,6.59
2018-03-07T11:16:36.004Z,6.62
2018-03-07T11:19:04.346Z,6.63
2018-03-07T11:21:32.573Z,6.67
2018-03-07T11:24:00.835Z,6.72
2018-03-07T11:26:29.122Z,6.73
2018-03-07T11:28:57.380Z,6.76
2018-03-07T11:31:25.966Z,6.73
2018-03-07T11:33:54.210Z,6.82
2018-03-07T11:36:22.500Z,6.85
2018-03-07T11:38:50.763Z,6.85
2018-03-07T11:41:19.807Z,6.89
2018-03-07T11:43:48.470Z,6.91
2018-03-07T11:46:17.487Z,6.98
2018-03-07T11:48:45.759Z,6.99
2018-03-07T11:51:14.020Z,6.98
2018-03-07T11:53:42.299Z,6.98
2018-03-07T11:56:10.631Z,7.03
2018-03-07T11:58:38.848Z,7.08
2018-03-07T12:01:07.137Z,7.09
2018-03-07T12:03:35.405Z,7.11
2018-03-07T12:06:03.699Z,7.12
2018-03-07T12:08:31.963Z,7.09
2018-03-07T12:11:00.251Z,7.11
2018-03-07T12:13:28.515Z,7.08
2018-03-07T12:15:56.808Z,7.12
2018-03-07T12:18:25.055Z,7.20
2018-03-07T12:20:53.774Z,7.26
2018-03-07T12:23:22.053Z,7.29
2018-03-07T12:25:50.309Z,7.27
2018-03-07T12:28:19.335Z,7.34
2018-03-07T12:30:47.594Z,7.30
2018-03-07T12:33:15.879Z,7.35
2018-03-07T12:35:44.148Z,7.40
2018-03-07T12:38:12.399Z,7.46
2018-03-07T12:40:41.222Z,7.49
2018-03-07T12:43:09.486Z,7.48
2018-03-07T12:45:37.735Z,7.55
2018-03-07T12:48:06.007Z,7.55
2018-03-07T12:50:34.268Z,7.52
2018-03-07T12:53:02.582Z,7.64
2018-03-07T12:55:30.861Z,7.78
2018-03-07T12:57:59.152Z,7.74
2018-03-07T13:00:27.444Z,7.76
2018-03-07T13:02:55.724Z,7.80
2018-03-07T13:05:23.998Z,7.84
2018-03-07T13:07:52.309Z,7.75
2018-03-07T13:10:22.061Z,7.75
2018-03-07T13:12:50.313Z,7.70
2018-03-07T13:15:18.599Z,7.71
2018-03-07T13:17:46.877Z,7.69
2018-03-07T13:20:15.910Z,7.67
2018-03-07T13:22:44.591Z,7.64
2018-03-07T13:25:12.882Z,7.68
2018-03-07T13:27:41.144Z,7.66
2018-03-07T13:30:09.411Z,7.69
2018-03-07T13:32:37.673Z,7.70
2018-03-07T13:35:05.974Z,7.73
2018-03-07T13:37:34.233Z,7.80
2018-03-07T13:40:03.266Z,7.80
2018-03-07T13:42:31.541Z,7.82
2018-03-07T13:44:59.808Z,7.82
2018-03-07T13:47:28.103Z,7.79
2018-03-07T13:49:56.371Z,7.48
2018-03-07T13:52:24.642Z,7.26
2018-03-07T13:54:53.253Z,7.10
2018-03-07T13:57:21.500Z,7.00
2018-03-07T13:59:49.780Z,6.94
2018-03-07T14:02:18.057Z,7.00
2018-03-07T14:04:46.330Z,7.11
2018-03-07T14:07:14.628Z,7.13
2018-03-07T14:09:42.886Z,7.22
2018-03-07T14:12:11.142Z,7.27
2018-03-07T14:14:39.423Z,7.30
2018-03-07T14:17:07.684Z,7.29
2018-03-07T14:19:36.421Z,7.29
2018-03-07T14:22:04.666Z,7.24
2018-03-07T14:24:32.952Z,7.20
2018-03-07T14:27:01.214Z,7.12
2018-03-07T14:29:30.248Z,7.21
2018-03-07T14:31:58.548Z,7.30
2018-03-07T14:34:26.835Z,7.33
2018-03-07T14:36:55.074Z,7.34
2018-03-07T14:39:23.361Z,7.30
2018-03-07T14:41:51.643Z,7.26
2018-03-07T14:44:19.948Z,7.23
2018-03-07T14:46:48.209Z,7.22
2018-03-07T14:49:16.476Z,7.27
2018-03-07T14:51:44.758Z,7.29
2018-03-07T14:54:13.060Z,7.30
2018-03-07T14:56:41.369Z,7.29
2018-03-07T14:59:10.089Z,7.26
2018-03-07T15:01:38.363Z,7.25
2018-03-07T15:04:06.639Z,7.35
2018-03-07T15:06:34.910Z,7.35
2018-03-07T15:09:03.199Z,7.33
2018-03-07T15:11:31.506Z,7.32
2018-03-07T15:13:59.805Z,7.33
2018-03-07T15:16:28.462Z,7.31
2018-03-07T15:18:56.769Z,7.41
2018-03-07T15:21:25.546Z,7.47
2018-03-07T15:23:54.604Z,7.53
2018-03-07T15:26:22.875Z,7.47
2018-03-07T15:28:51.158Z,7.42
2018-03-07T15:31:19.434Z,7.34
2018-03-07T15:33:47.977Z,7.34
2018-03-07T15:36:17.032Z,7.30
2018-03-07T15:38:45.702Z,7.34
2018-03-07T15:41:14.417Z,7.35
2018-03-07T15:43:42.670Z,7.20
2018-03-07T15:46:10.980Z,7.20
2018-03-07T15:48:40.471Z,7.23
2018-03-07T15:51:08.766Z,7.26
2018-03-07T15:53:37.062Z,7.23
2018-03-07T15:56:05.875Z,7.18
2018-03-07T15:58:34.151Z,7.21
2018-03-07T16:01:02.403Z,7.11
2018-03-07T16:03:31.415Z,7.14
2018-03-07T16:06:00.456Z,7.06
2018-03-07T16:08:28.722Z,7.09
2018-03-07T16:10:57.018Z,7.05
2018-03-07T16:13:25.299Z,6.99
2018-03-07T16:15:53.587Z,7.04
2018-03-07T16:18:21.852Z,7.13
2018-03-07T16:20:50.132Z,7.04
2018-03-07T16:23:18.695Z,7.05
2018-03-07T16:25:46.957Z,6.90
2018-03-07T16:28:15.243Z,6.88
2018-03-07T16:30:43.536Z,6.85
2018-03-07T16:33:11.810Z,6.82
2018-03-07T16:35:40.390Z,6.79
2018-03-07T16:38:08.654Z,6.77
2018-03-07T16:40:37.332Z,6.67
2018-03-07T16:43:05.599Z,6.64
2018-03-07T16:45:35.052Z,6.59
2018-03-07T16:48:03.360Z,6.53
2018-03-07T16:50:31.634Z,6.58
2018-03-07T16:53:00.794Z,6.56
2018-03-07T16:55:29.098Z,6.51
2018-03-07T16:57:57.352Z,6.55
2018-03-07T17:00:25.645Z,6.49
2018-03-07T17:02:54.319Z,6.48
2018-03-07T17:05:23.019Z,6.47
2018-03-07T17:07:51.318Z,6.48
2018-03-07T17:10:19.599Z,6.44
2018-03-07T17:12:47.920Z,6.44
2018-03-07T17:15:16.180Z,6.45
2018-03-07T17:17:44.432Z,6.46
2018-03-07T17:20:12.720Z,6.38
2018-03-07T17:22:40.983Z,6.36
2018-03-07T17:25:09.261Z,6.41
2018-03-07T17:27:37.512Z,6.32
2018-03-07T17:30:05.791Z,6.29
2018-03-07T17:32:34.084Z,6.32
2018-03-07T17:35:02.403Z,6.30
2018-03-07T17:37:31.110Z,6.37
2018-03-07T17:39:59.419Z,6.30
2018-03-07T17:42:27.688Z,6.25
2018-03-07T17:44:55.985Z,6.30
2018-03-07T17:47:24.287Z,6.19
2018-03-07T17:49:52.696Z,6.24
2018-03-07T17:52:21.308Z,6.26
2018-03-07T17:54:50.334Z,6.25
2018-03-07T17:57:18.618Z,6.22
2018-03-07T17:59:46.889Z,6.23
2018-03-07T18:02:15.181Z,6.22
2018-03-07T18:04:43.527Z,6.14
2018-03-07T18:07:12.205Z,6.12
2018-03-07T18:09:40.900Z,6.15
2018-03-07T18:12:09.169Z,6.13
2018-03-07T18:14:37.439Z,6.09
2018-03-07T18:17:05.698Z,6.10
2018-03-07T18:19:33.984Z,6.17
2018-03-07T18:22:02.256Z,6.12
2018-03-07T18:24:30.549Z,6.11
2018-03-07T18:26:59.280Z,5.99
2018-03-07T18:29:27.539Z,5.99
2018-03-07T18:31:55.974Z,5.99
2018-03-07T18:34:24.273Z,6.03
2018-03-07T18:36:52.557Z,6.02
2018-03-07T18:39:20.818Z,5.99
2018-03-07T18:41:49.123Z,5.97
2018-03-07T18:44:17.415Z,6.01
2018-03-07T18:46:45.692Z,6.02
2018-03-07T18:49:13.957Z,6.03
2018-03-07T18:51:42.261Z,5.96
2018-03-07T18:54:10.562Z,5.94
2018-03-07T18:56:39.606Z,6.01
2018-03-07T18:59:07.869Z,6.05
2018-03-07T19:01:36.166Z,6.04
2018-03-07T19:04:04.457Z,5.99
2018-03-07T19:06:32.749Z,6.01
2018-03-07T19:09:01.416Z,5.92
2018-03-07T19:11:29.793Z,5.95
2018-03-07T19:13:58.487Z,6.01
2018-03-07T19:16:26.768Z,5.97
2018-03-07T19:18:55.081Z,5.94
2018-03-07T19:21:23.361Z,5.92
2018-03-07T19:23:52.473Z,5.86
2018-03-07T19:26:21.934Z,5.95
2018-03-07T19:28:50.585Z,5.96
2018-03-07T19:31:18.878Z,6.00
2018-03-07T19:33:47.137Z,5.95
2018-03-07T19:36:15.426Z,5.90
2018-03-07T19:38:43.724Z,5.84
2018-03-07T19:41:12.779Z,5.78
2018-03-07T19:43:41.515Z,5.72
2018-03-07T19:46:09.789Z,5.75
2018-03-07T19:48:38.043Z,5.77
2018-03-07T19:51:06.337Z,5.76
2018-03-07T19:53:34.591Z,5.79
2018-03-07T19:56:02.871Z,5.78
2018-03-07T19:58:31.151Z,5.78
2018-03-07T20:00:59.546Z,5.83
2018-03-07T20:03:28.211Z,5.87
2018-03-07T20:05:56.916Z,5.82
2018-03-07T20:08:26.032Z,5.84
2018-03-07T20:10:54.328Z,5.86
2018-03-07T20:13:22.623Z,5.87
2018-03-07T20:15:50.927Z,5.87
2018-03-07T20:18:19.202Z,5.93
2018-03-07T20:20:47.696Z,5.86
2018-03-07T20:23:19.822Z,5.90
2018-03-07T20:25:48.908Z,5.92
2018-03-07T20:28:17.132Z,5.93
2018-03-07T20:30:45.434Z,5.95
2018-03-07T20:33:13.698Z,5.91
2018-03-07T20:35:41.994Z,5.88
2018-03-07T20:38:11.062Z,5.94
2018-03-07T20:40:39.889Z,5.87
2018-03-07T20:43:08.187Z,5.82
2018-03-07T20:45:37.297Z,5.86
2018-03-07T20:48:05.577Z,5.81
2018-03-07T20:50:34.676Z,5.77
2018-03-07T20:53:03.838Z,5.73
2018-03-07T20:55:32.134Z,5.66
2018-03-07T20:58:01.173Z,5.55
2018-03-07T21:00:29.472Z,5.60
2018-03-07T21:02:58.251Z,5.58
2018-03-07T21:05:26.538Z,5.53
2018-03-07T21:07:58.520Z,5.51
2018-03-07T21:10:26.834Z,5.55
2018-03-07T21:12:55.847Z,5.58
2018-03-07T21:15:24.111Z,5.63
2018-03-07T21:17:52.405Z,5.56
2018-03-07T21:20:20.691Z,5.56
2018-03-07T21:22:49.010Z,5.52
2018-03-07T21:25:17.442Z,5.50
2018-03-07T21:27:45.799Z,5.42
2018-03-07T21:30:14.916Z,5.32
2018-03-07T21:32:43.167Z,5.16
2018-03-07T21:35:12.828Z,5.08
2018-03-07T21:37:41.588Z,5.11
2018-03-07T21:40:09.858Z,4.89
2018-03-07T21:42:38.568Z,4.84
2018-03-07T21:45:07.237Z,4.63
2018-03-07T21:47:37.724Z,4.62
2018-03-07T21:50:10.060Z,4.59
2018-03-07T21:52:38.468Z,4.45
2018-03-07T21:55:06.834Z,4.38
2018-03-07T21:57:35.190Z,4.45
2018-03-07T22:00:03.597Z,4.24
2018-03-07T22:02:31.979Z,4.28
2018-03-07T22:05:00.339Z,4.21
2018-03-07T22:07:30.587Z,4.23
2018-03-07T22:09:58.939Z,4.22
2018-03-07T22:12:27.333Z,4.15
2018-03-07T22:14:55.702Z,3.98
2018-03-07T22:17:24.086Z,3.97
2018-03-07T22:19:52.507Z,3.98
2018-03-07T22:22:20.854Z,3.90
2018-03-07T22:24:49.646Z,3.83
2018-03-07T22:27:17.912Z,3.84
2018-03-07T22:29:46.289Z,3.82
2018-03-07T22:32:16.532Z,3.88
2018-03-07T22:34:44.886Z,3.89
2018-03-07T22:37:13.390Z,3.96
2018-03-07T22:39:41.652Z,4.00
2018-03-07T22:42:10.940Z,3.98
2018-03-07T22:44:39.331Z,4.01
2018-03-07T22:47:07.713Z,3.98
2018-03-07T22:49:37.955Z,3.99
2018-03-07T22:52:06.316Z,3.93
2018-03-07T22:54:34.701Z,4.02
2018-03-07T22:57:03.075Z,4.09
2018-03-07T22:59:31.476Z,4.09
2018-03-07T23:01:59.874Z,4.06
2018-03-07T23:04:28.227Z,4.03
2018-03-07T23:06:56.618Z,3.91
2018-03-07T23:09:38.120Z,3.91
2018-03-07T23:12:07.351Z,4.00
2018-03-07T23:14:35.609Z,4.06
2018-03-07T23:17:03.943Z,4.00
2018-03-07T23:19:32.546Z,3.92
2018-03-07T23:22:01.028Z,3.90
2018-03-07T23:24:29.389Z,3.89
2018-03-07T23:26:58.200Z,3.91
2018-03-07T23:29:26.447Z,4.00
2018-03-07T23:31:55.921Z,3.89
2018-03-07T23:34:24.197Z,4.00
2018-03-07T23:36:53.436Z,4.14
2018-03-07T23:39:25.231Z,4.16
2018-03-07T23:41:53.581Z,4.17
2018-03-07T23:44:23.194Z,4.29
2018-03-07T23:46:51.589Z,4.38
2018-03-07T23:49:19.969Z,4.31
2018-03-07T23:51:52.644Z,4.27
2018-03-07T23:54:21.020Z,4.36
2018-03-07T23:56:51.228Z,4.18
2018-03-07T23:59:20.040Z,4.09
